< < Back
Terminal Aerodrome Forecast


Current Version              Previous Versions:   1  2  3  4  5  6  7  8  9  

Terminal Aerodrome Forecast

620
FTUS42 KTAE 171200 RRA
TAFDHN
TAF
KDHN 171202Z 1712/1812 08006KT P6SM SCT045
     FM171400 08011G18KT P6SM BKN025
     FM171700 09009KT P6SM BKN040
     FM180300 08011KT P6SM BKN025
     FM180900 07013KT 5SM RA OVC008=



Latest METAR

730
SAUS70 KWBC 180800 RRD
MTRDHN
METAR KDHN 180753Z AUTO 06010KT 5SM RA BR BKN090 OVC100 13/12 A3019 RMK
AO2 SLP219 P0021 T01330122


USA.gov is the U.S. government's official web portal to all federal, state and local government web resources and services.